Time;durP1;ratioP1;P1;durP2;ratioP2;P2;SDS_P1;SDS_P2;PMS_P1;PMS_P2;Temp;Humidity;BMP_temperature;BMP_pressure;BME280_temperature;BME280_humidity;BME280_pressure;Samples;Min_cycle;Max_cycle;Signal;HPM_P1;HPM_P2
2021/12/01 00:00:37;;;;;;;1.27;0.70;;;20.00;42.30;;;23.63;28.33;99772.31;4861978;29;20049;-76
2021/12/01 00:03:02;;;;;;;1.48;0.90;;;20.00;42.30;;;23.63;28.14;99773.13;4862114;29;20049;-77
2021/12/01 00:05:31;;;;;;;1.38;0.80;;;20.00;42.30;;;23.62;28.28;99766.13;4861922;29;20053;-77
2021/12/01 00:07:57;;;;;;;1.38;0.80;;;20.00;42.30;;;23.63;28.51;99750.94;4861872;29;20139;-76
2021/12/01 00:10:25;;;;;;;1.55;0.80;;;20.00;42.30;;;23.63;28.39;99748.28;4861573;29;20056;-76
2021/12/01 00:12:52;;;;;;;1.15;0.70;;;20.00;42.30;;;23.59;28.30;99739.72;4861917;29;20109;-77
2021/12/01 00:15:19;;;;;;;1.27;0.80;;;20.00;42.30;;;23.62;28.42;99730.56;4878369;29;20049;-77
2021/12/01 00:17:46;;;;;;;1.33;0.80;;;20.00;42.30;;;23.63;28.38;99738.44;4849650;29;20055;-77
2021/12/01 00:20:16;;;;;;;1.73;1.00;;;20.00;42.40;;;23.64;28.37;99728.63;4865012;29;20064;-76
2021/12/01 00:22:43;;;;;;;1.63;0.80;;;20.00;42.30;;;23.61;28.36;99715.56;4834478;29;20057;-77
2021/12/01 00:25:12;;;;;;;1.13;0.60;;;20.00;42.40;;;23.63;28.47;99713.59;4865034;29;20057;-77
2021/12/01 00:27:38;;;;;;;0.60;0.60;;;20.00;42.30;;;23.62;28.25;99695.88;4864865;29;20077;-77
2021/12/01 00:30:07;;;;;;;1.73;0.75;;;20.00;42.30;;;23.62;28.21;99704.75;4864870;29;20140;-76
2021/12/01 00:32:35;;;;;;;1.08;0.63;;;20.00;42.30;;;23.62;28.30;99691.41;4834164;29;20074;-77
2021/12/01 00:35:02;;;;;;;1.02;0.80;;;20.00;42.40;;;23.61;28.25;99684.38;4865037;29;20074;-77
2021/12/01 00:37:31;;;;;;;1.10;0.77;;;20.00;42.40;;;23.59;28.51;99673.00;4864557;29;20064;-77
2021/12/01 00:39:56;;;;;;;1.02;0.75;;;19.90;42.30;;;23.58;28.52;99654.47;4881692;29;20073;-76
2021/12/01 00:42:22;;;;;;;1.02;0.73;;;20.00;42.40;;;23.58;28.39;99649.13;4865009;29;20057;-76
2021/12/01 00:44:56;;;;;;;1.40;0.82;;;20.00;42.40;;;23.62;28.47;99650.53;4880185;29;20049;-76
2021/12/01 00:47:30;;;;;;;0.95;0.82;;;20.00;42.40;;;23.59;28.26;99637.47;4864793;29;20136;-76
2021/12/01 00:49:57;;;;;;;1.33;0.65;;;20.00;42.40;;;23.57;28.32;99637.63;4863595;29;20049;-77
2021/12/01 00:52:24;;;;;;;1.10;0.60;;;20.00;42.40;;;23.60;28.40;99648.00;4864737;29;20053;-76
2021/12/01 00:54:50;;;;;;;1.58;0.90;;;20.00;42.40;;;23.61;28.34;99646.19;4879976;29;20057;-76
2021/12/01 00:57:16;;;;;;;1.30;0.80;;;20.00;42.40;;;23.58;28.33;99633.13;4849140;29;20052;-77
2021/12/01 00:59:42;;;;;;;1.33;0.70;;;19.90;42.40;;;23.60;28.55;99629.31;4864491;29;20405;-77
2021/12/01 01:02:08;;;;;;;0.90;0.70;;;20.00;42.40;;;23.60;28.22;99625.81;4864585;29;20055;-76
2021/12/01 01:04:34;;;;;;;1.38;0.70;;;20.00;42.40;;;23.62;28.44;99621.16;4864493;29;20048;-76
2021/12/01 01:07:00;;;;;;;1.08;0.73;;;20.00;42.40;;;23.59;28.46;99608.97;4864538;29;20633;-77
2021/12/01 01:09:31;;;;;;;0.77;0.60;;;20.00;42.40;;;23.58;28.48;99603.78;4881138;29;20153;-76
2021/12/01 01:17:38;;;;;;;1.00;0.70;;;20.00;42.40;;;23.58;28.48;99583.25;4866934;29;20568;-76
2021/12/01 01:20:10;;;;;;;1.70;0.95;;;20.00;42.40;;;23.56;28.27;99577.25;4866124;29;20136;-77
2021/12/01 01:22:36;;;;;;;1.65;1.00;;;20.00;42.40;;;23.56;28.62;99565.72;4864126;29;20049;-76
2021/12/01 01:25:05;;;;;;;1.05;0.70;;;19.90;42.40;;;23.56;28.29;99561.22;4864161;29;20088;-76
2021/12/01 01:27:32;;;;;;;0.82;0.70;;;20.00;42.50;;;23.58;28.48;99561.91;4863855;29;20149;-76
2021/12/01 01:30:01;;;;;;;0.90;0.70;;;20.00;42.40;;;23.59;28.46;99549.41;4864553;29;20052;-76
2021/12/01 01:32:27;;;;;;;0.65;0.65;;;20.00;42.40;;;23.59;28.59;99546.75;4848613;29;20049;-76
2021/12/01 01:34:53;;;;;;;1.10;0.70;;;20.00;42.50;;;23.56;28.47;99531.88;4863988;29;20068;-77
2021/12/01 01:37:18;;;;;;;1.05;0.73;;;19.90;42.40;;;23.57;28.41;99535.38;4864062;29;20057;-76
2021/12/01 01:39:46;;;;;;;1.02;0.70;;;19.90;42.40;;;23.58;28.41;99531.75;4863882;29;20493;-76
2021/12/01 01:42:12;;;;;;;0.90;0.70;;;19.90;42.40;;;23.59;28.47;99525.41;4864483;29;20063;-77
2021/12/01 01:44:38;;;;;;;1.75;0.73;;;19.90;42.40;;;23.55;28.42;99514.19;4863851;29;20109;-77
2021/12/01 01:47:04;;;;;;;0.75;0.75;;;19.90;42.40;;;23.57;28.38;99506.88;4863995;29;20497;-76
2021/12/01 01:52:16;;;;;;;1.33;0.98;;;19.90;42.40;;;23.59;28.29;99491.56;4826067;29;20148;-76
2021/12/01 01:54:43;;;;;;;0.70;0.70;;;19.90;42.50;;;23.56;28.47;99475.84;4863920;29;20057;-76
2021/12/01 01:57:09;;;;;;;0.90;0.70;;;19.90;42.50;;;23.57;28.33;99463.34;4880316;29;20406;-76
2021/12/01 01:59:35;;;;;;;2.05;0.80;;;19.90;42.40;;;23.56;28.47;99459.84;4880399;29;20493;-76
2021/12/01 02:02:03;;;;;;;1.08;0.82;;;19.90;43.00;;;23.55;28.44;99454.66;4863485;29;20049;-76
2021/12/01 02:04:33;;;;;;;1.05;0.80;;;19.90;42.40;;;23.57;28.47;99464.19;4864301;29;20201;-77
2021/12/01 02:07:01;;;;;;;1.10;0.70;;;19.90;42.40;;;23.58;28.51;99454.34;4863995;29;20625;-76
2021/12/01 02:09:27;;;;;;;0.82;0.70;;;19.90;42.50;;;23.56;28.55;99454.50;4863858;29;20087;-76
2021/12/01 02:11:57;;;;;;;1.02;0.60;;;19.90;42.40;;;23.59;28.57;99448.03;4863581;29;20045;-76
2021/12/01 02:14:25;;;;;;;1.25;0.70;;;19.90;42.50;;;23.59;28.48;99440.00;4863876;29;20509;-76
2021/12/01 02:16:51;;;;;;;0.82;0.73;;;19.90;42.50;;;23.59;28.43;99442.69;4863400;29;20044;-76
2021/12/01 02:19:18;;;;;;;1.90;0.88;;;19.90;42.40;;;23.55;28.64;99433.31;4863295;29;20501;-77
2021/12/01 02:21:44;;;;;;;0.70;0.70;;;19.90;42.50;;;23.55;28.29;99430.63;4863344;29;20409;-76
2021/12/01 02:24:12;;;;;;;0.75;0.70;;;19.90;42.40;;;23.56;28.42;99432.34;4863374;29;20057;-76
2021/12/01 02:26:44;;;;;;;1.38;0.90;;;19.90;42.40;;;23.58;28.41;99417.00;4863597;29;20057;-76
2021/12/01 02:29:13;;;;;;;0.80;0.75;;;19.90;42.50;;;23.56;28.57;99411.81;4863383;29;20056;-76
2021/12/01 02:31:40;;;;;;;0.75;0.75;;;19.90;42.50;;;23.54;28.54;99386.25;4861507;29;20056;-76
2021/12/01 02:34:18;;;;;;;0.90;0.75;;;19.90;42.40;;;23.53;28.35;99373.94;4863057;29;20053;-76
2021/12/01 02:36:49;;;;;;;1.30;0.73;;;19.90;42.50;;;23.54;28.41;99372.91;4863624;29;20076;-76
2021/12/01 02:39:16;;;;;;;0.98;0.85;;;19.90;42.40;;;23.57;28.47;99375.28;4862165;29;20462;-77
2021/12/01 02:41:44;;;;;;;1.65;0.68;;;19.90;42.50;;;23.56;28.44;99370.97;4863264;29;20053;-76
2021/12/01 02:44:12;;;;;;;0.80;0.77;;;19.90;42.50;;;23.59;28.53;99365.31;4863029;29;20080;-76
2021/12/01 02:46:38;;;;;;;1.35;0.70;;;19.90;42.50;;;23.55;28.49;99358.59;4879754;29;20081;-77
2021/12/01 02:49:06;;;;;;;2.15;0.88;;;19.90;42.50;;;23.55;28.40;99340.75;4832593;29;20071;-76
2021/12/01 02:51:34;;;;;;;0.93;0.80;;;19.90;42.50;;;23.54;28.46;99331.09;4863011;29;20109;-76
2021/12/01 02:54:00;;;;;;;0.93;0.65;;;19.90;42.50;;;23.56;28.30;99323.78;4863240;29;20052;-76
2021/12/01 02:56:31;;;;;;;1.70;0.80;;;19.90;42.50;;;23.56;28.43;99309.59;4847791;29;20052;-77
2021/12/01 02:59:01;;;;;;;1.10;0.80;;;19.90;42.50;;;23.54;28.43;99309.75;4879561;29;20508;-76
2021/12/01 03:01:28;;;;;;;0.70;0.68;;;19.90;42.50;;;23.57;28.49;99293.44;4847605;29;20101;-77
2021/12/01 03:03:56;;;;;;;1.65;0.82;;;19.90;42.40;;;23.57;28.59;99284.59;4862890;29;20073;-76
2021/12/01 03:06:25;;;;;;;1.02;0.65;;;19.90;42.50;;;23.57;28.33;99280.09;4862879;29;20421;-76
2021/12/01 03:08:51;;;;;;;0.90;0.60;;;20.00;42.50;;;23.58;28.61;99273.75;4862932;29;20064;-76
2021/12/01 03:11:17;;;;;;;1.20;0.82;;;20.00;42.40;;;23.60;28.52;99273.63;4862747;29;20073;-76
2021/12/01 03:13:43;;;;;;;1.23;0.70;;;19.90;42.40;;;23.57;28.64;99269.44;4862602;29;20088;-76
2021/12/01 03:16:09;;;;;;;0.90;0.82;;;20.00;42.40;;;23.60;28.48;99268.28;4879591;29;20041;-76
2021/12/01 03:18:36;;;;;;;0.88;0.70;;;20.00;42.40;;;23.59;28.52;99267.44;4862618;29;20060;-76
2021/12/01 03:21:02;;;;;;;1.10;0.57;;;20.00;42.40;;;23.61;28.40;99251.28;4879322;29;20045;-76
2021/12/01 03:23:28;;;;;;;0.98;0.70;;;20.00;42.40;;;23.61;28.49;99254.78;4879134;29;20641;-76
2021/12/01 03:25:54;;;;;;;0.95;0.75;;;20.00;42.30;;;23.63;28.50;99225.28;4877940;29;20197;-76
2021/12/01 03:28:20;;;;;;;0.82;0.63;;;20.00;42.30;;;23.63;28.37;99209.28;4879092;29;20082;-76
2021/12/01 03:30:47;;;;;;;1.20;0.70;;;20.00;42.30;;;23.64;28.58;99184.28;4862258;29;20056;-76
2021/12/01 03:33:18;;;;;;;0.90;0.63;;;20.00;42.20;;;23.64;28.53;99173.63;4862418;29;20053;-76
2021/12/01 03:35:47;;;;;;;1.42;0.88;;;20.10;42.20;;;23.68;28.47;99183.81;4862441;29;20437;-76
2021/12/01 03:38:14;;;;;;;0.60;0.60;;;20.10;42.30;;;23.66;28.46;99169.78;4846816;29;20060;-76
2021/12/01 03:40:40;;;;;;;0.65;0.60;;;20.10;42.20;;;23.68;28.33;99165.13;4862542;29;20052;-76
2021/12/01 03:43:07;;;;;;;0.60;0.60;;;20.10;42.20;;;23.67;28.55;99158.13;4862247;29;20053;-76
2021/12/01 03:45:33;;;;;;;1.10;0.98;;;20.10;42.20;;;23.71;28.45;99156.00;4862275;29;20045;-76
2021/12/01 03:47:59;;;;;;;1.05;0.60;;;20.10;42.10;;;23.71;28.35;99150.66;4862189;29;20056;-76
2021/12/01 03:50:26;;;;;;;0.90;0.63;;;20.10;42.20;;;23.72;28.37;99138.97;4861685;29;20055;-76
2021/12/01 03:52:51;;;;;;;1.85;0.80;;;20.10;42.10;;;23.74;28.36;99139.69;4846844;29;20057;-76
2021/12/01 03:55:17;;;;;;;1.10;0.80;;;20.10;42.70;;;23.75;28.33;99129.84;4862225;29;20052;-76
2021/12/01 03:57:44;;;;;;;1.27;0.80;;;20.20;42.20;;;23.74;28.27;99123.66;4862037;29;20063;-76
2021/12/01 04:00:13;;;;;;;0.85;0.68;;;20.10;42.10;;;23.76;28.36;99112.84;4846781;29;20069;-76
2021/12/01 04:02:40;;;;;;;1.25;0.75;;;20.20;42.20;;;23.76;28.38;99107.50;4862105;29;20045;-76
2021/12/01 04:05:08;;;;;;;1.30;0.85;;;20.20;42.10;;;23.76;28.21;99096.81;4862385;29;20045;-76
2021/12/01 04:07:34;;;;;;;1.20;0.77;;;20.20;42.10;;;23.81;28.34;99091.84;4862061;29;20053;-76
2021/12/01 04:10:07;;;;;;;0.90;0.70;;;20.20;42.10;;;23.80;28.43;99084.81;4861926;29;20053;-76
2021/12/01 04:12:35;;;;;;;1.02;0.70;;;20.20;42.10;;;23.81;28.26;99067.84;4846679;29;20061;-76
2021/12/01 04:15:04;;;;;;;1.00;0.60;;;20.20;42.10;;;23.83;28.12;99068.53;4878625;29;20442;-77
2021/12/01 04:17:30;;;;;;;1.02;0.75;;;20.20;42.00;;;23.82;28.27;99058.84;4861870;29;20057;-76
2021/12/01 04:19:56;;;;;;;0.82;0.63;;;20.20;42.00;;;23.84;28.33;99060.38;4861838;29;20409;-76
2021/12/01 04:22:22;;;;;;;0.90;0.60;;;20.20;42.00;;;23.81;28.35;99041.97;4878516;29;20140;-76
2021/12/01 04:24:49;;;;;;;1.13;0.60;;;20.30;42.10;;;23.84;28.25;99014.19;4878613;29;20053;-76
2021/12/01 04:27:15;;;;;;;0.65;0.50;;;20.30;42.00;;;23.86;28.10;99002.34;4846245;29;20401;-76
2021/12/01 04:29:41;;;;;;;1.00;0.52;;;20.30;42.00;;;23.86;28.26;99015.69;4861257;29;20060;-76
2021/12/01 04:32:08;;;;;;;1.02;0.88;;;20.30;42.00;;;23.87;28.32;99013.84;4861661;29;20114;-76
2021/12/01 04:34:36;;;;;;;0.85;0.73;;;20.30;42.00;;;23.88;28.38;98986.16;4878340;29;20398;-76
2021/12/01 04:37:03;;;;;;;0.82;0.80;;;20.30;42.00;;;23.89;28.12;98990.50;4861759;29;20049;-76
2021/12/01 04:39:28;;;;;;;0.93;0.60;;;20.30;41.90;;;23.88;28.34;98972.81;4861664;29;20061;-77
2021/12/01 04:42:04;;;;;;;0.93;0.68;;;20.30;41.90;;;23.90;28.07;98956.66;4877038;29;20478;-76
2021/12/01 04:44:31;;;;;;;0.70;0.60;;;20.30;41.90;;;23.92;28.20;98949.31;4862939;29;20132;-77
2021/12/01 04:46:58;;;;;;;0.60;0.57;;;20.30;41.90;;;23.94;28.25;98949.97;4861600;29;20137;-77
2021/12/01 04:49:26;;;;;;;1.17;0.73;;;20.30;41.90;;;23.90;28.20;98927.28;4846575;29;20049;-76
2021/12/01 04:51:57;;;;;;;1.00;0.50;;;20.30;41.90;;;23.93;28.15;98927.78;4861553;29;20057;-76
2021/12/01 04:54:25;;;;;;;1.58;0.75;;;20.30;41.90;;;23.94;28.23;98924.13;4861653;29;20049;-77
2021/12/01 04:56:52;;;;;;;1.20;0.80;;;20.30;41.90;;;23.92;28.02;98911.94;4861341;29;20494;-76
2021/12/01 04:59:19;;;;;;;1.02;0.85;;;20.30;41.90;;;23.94;28.05;98899.25;4861447;29;20081;-76
2021/12/01 05:01:47;;;;;;;0.82;0.73;;;20.30;41.90;;;23.90;28.08;98888.06;4847517;29;20060;-77
2021/12/01 05:04:13;;;;;;;1.45;0.88;;;20.30;41.90;;;23.91;28.14;98896.94;4864907;29;20140;-77
2021/12/01 05:06:40;;;;;;;1.20;0.70;;;20.30;41.90;;;23.92;28.31;98895.91;4864313;29;20076;-76
2021/12/01 05:09:08;;;;;;;0.77;0.60;;;20.30;41.90;;;23.94;28.27;98886.78;4864348;29;20075;-76
2021/12/01 05:11:34;;;;;;;0.77;0.70;;;20.30;41.90;;;23.93;28.07;98877.06;4863673;29;20075;-76
2021/12/01 05:14:00;;;;;;;1.05;0.80;;;20.30;41.90;;;23.94;28.10;98856.56;4849024;29;20497;-76
2021/12/01 05:16:26;;;;;;;1.83;0.70;;;20.30;41.90;;;23.92;28.24;98848.69;4864334;29;20068;-76
2021/12/01 05:18:52;;;;;;;1.23;0.60;;;20.30;41.90;;;23.90;28.02;98829.34;4864175;29;20060;-77
2021/12/01 05:21:18;;;;;;;1.08;0.70;;;20.30;41.90;;;23.94;28.15;98845.88;4864070;29;20045;-77
2021/12/01 05:23:45;;;;;;;0.52;0.52;;;20.40;41.90;;;23.94;28.13;98845.88;4880942;29;20053;-76
2021/12/01 05:26:11;;;;;;;0.65;0.60;;;20.40;41.90;;;23.93;28.08;98831.69;4864453;29;20048;-76
2021/12/01 05:28:39;;;;;;;1.90;0.60;;;20.30;41.90;;;23.96;28.04;98819.88;4864012;29;20144;-77
2021/12/01 05:31:05;;;;;;;1.15;1.00;;;20.30;41.90;;;23.95;28.21;98808.34;4864023;29;20143;-76
2021/12/01 05:33:32;;;;;;;0.47;0.45;;;20.30;41.90;;;23.93;28.12;98799.66;4864034;29;20080;-76
2021/12/01 05:35:58;;;;;;;1.02;0.70;;;20.30;41.90;;;23.95;28.17;98791.50;4864083;29;20076;-77
2021/12/01 05:38:25;;;;;;;1.38;0.60;;;20.30;41.90;;;23.96;27.92;98786.00;4864100;29;20116;-76
2021/12/01 05:40:51;;;;;;;1.15;0.70;;;20.30;41.90;;;23.96;28.24;98779.84;4864003;29;20097;-77
2021/12/01 05:43:18;;;;;;;0.85;0.60;;;20.30;41.90;;;23.96;28.05;98775.31;4833375;29;20057;-77
2021/12/01 05:45:46;;;;;;;0.82;0.60;;;20.30;41.90;;;23.92;28.08;98754.47;4864201;29;20494;-77
2021/12/01 05:48:13;;;;;;;0.80;0.68;;;20.30;41.90;;;23.96;28.06;98747.81;4863829;29;20064;-77
2021/12/01 05:50:39;;;;;;;1.33;0.68;;;20.30;41.90;;;23.96;28.05;98739.81;4880464;29;20049;-76
2021/12/01 05:53:05;;;;;;;0.65;0.60;;;20.30;41.90;;;23.97;28.17;98736.09;4880636;29;20506;-77
2021/12/01 05:55:31;;;;;;;0.50;0.50;;;20.30;41.90;;;23.93;28.00;98719.59;4880432;29;20093;-77
2021/12/01 05:57:58;;;;;;;0.90;0.70;;;20.30;41.90;;;23.94;28.11;98726.63;4880815;29;20209;-77
2021/12/01 06:00:24;;;;;;;0.70;0.57;;;20.30;41.90;;;23.96;28.18;98716.59;4863612;29;20064;-76
2021/12/01 06:02:51;;;;;;;1.02;0.70;;;20.30;41.90;;;23.95;28.20;98695.41;4863823;29;20077;-77
2021/12/01 06:05:19;;;;;;;1.45;0.70;;;20.30;41.90;;;23.95;28.18;98696.25;4863932;29;20497;-77
2021/12/01 06:07:48;;;;;;;0.50;0.50;;;20.30;41.90;;;23.96;27.99;98684.56;4863635;29;20095;-77
2021/12/01 06:10:15;;;;;;;1.15;0.70;;;20.30;41.90;;;23.95;28.08;98672.22;4863559;29;20508;-77
2021/12/01 06:12:42;;;;;;;0.93;0.68;;;20.30;41.90;;;23.94;28.03;98667.03;4863542;29;20060;-77
2021/12/01 06:15:11;;;;;;;1.23;0.80;;;20.30;41.90;;;23.95;28.33;98669.53;4863584;29;20453;-77
2021/12/01 06:17:38;;;;;;;0.60;0.50;;;20.30;41.90;;;23.93;28.20;98654.72;4863829;29;20375;-77
2021/12/01 06:20:08;;;;;;;0.85;0.68;;;20.30;41.90;;;23.93;28.08;98649.38;4863469;29;20395;-77
2021/12/01 06:22:35;;;;;;;1.23;0.70;;;20.30;41.90;;;23.94;28.08;98643.88;4861773;29;20064;-76
2021/12/01 06:25:03;;;;;;;0.80;0.80;;;20.30;42.00;;;23.94;28.21;98635.00;4863307;29;20057;-77
2021/12/01 06:27:29;;;;;;;0.60;0.60;;;20.30;42.00;;;23.95;28.08;98628.69;4863119;29;20051;-76
2021/12/01 06:29:55;;;;;;;1.05;0.70;;;20.30;41.90;;;23.94;28.26;98625.19;4878484;29;20061;-76
2021/12/01 06:32:22;;;;;;;1.30;0.77;;;20.40;42.00;;;23.95;28.11;98620.69;4863126;29;20053;-76
2021/12/01 06:34:48;;;;;;;1.08;0.70;;;20.30;42.00;;;23.96;28.02;98617.84;4863302;29;20143;-77
2021/12/01 06:37:18;;;;;;;0.70;0.63;;;20.30;41.90;;;23.97;28.19;98608.00;4863119;29;20060;-76
2021/12/01 06:39:46;;;;;;;0.95;0.73;;;20.40;41.90;;;23.97;28.22;98586.63;4848075;29;20056;-76
2021/12/01 06:42:12;;;;;;;1.60;0.88;;;20.40;41.90;;;23.98;28.06;98588.31;4863187;29;20057;-76
2021/12/01 06:44:38;;;;;;;0.80;0.57;;;20.40;42.00;;;23.96;28.14;98580.47;4862883;29;20490;-77
2021/12/01 06:47:05;;;;;;;0.70;0.70;;;20.40;41.90;;;23.94;28.15;98574.47;4878424;29;20056;-76
2021/12/01 06:49:31;;;;;;;0.95;0.52;;;20.40;41.90;;;23.95;28.09;98572.63;4862604;29;20063;-77
2021/12/01 06:51:57;;;;;;;1.20;0.70;;;20.30;41.90;;;23.93;28.10;98583.47;4862914;29;20493;-76
2021/12/01 06:54:23;;;;;;;1.05;0.80;;;20.40;42.00;;;23.97;28.29;98575.97;4862927;29;20052;-76
2021/12/01 06:56:49;;;;;;;0.52;0.52;;;20.40;41.90;;;23.98;28.21;98569.63;4863078;29;20067;-76
2021/12/01 06:59:15;;;;;;;1.50;0.70;;;20.40;41.90;;;23.98;28.11;98569.63;4878168;29;20084;-76
2021/12/01 07:01:41;;;;;;;1.80;0.70;;;20.40;42.00;;;23.95;28.13;98551.28;4862952;29;20131;-77
2021/12/01 07:04:07;;;;;;;1.00;0.70;;;20.40;41.90;;;23.97;28.02;98544.78;4862607;29;20053;-76
2021/12/01 07:06:32;;;;;;;1.15;0.75;;;20.40;41.90;;;23.96;28.25;98540.44;4862949;29;20055;-76
2021/12/01 07:09:02;;;;;;;1.63;0.80;;;20.40;42.00;;;23.99;28.29;98539.25;4847192;29;20053;-76
2021/12/01 07:11:29;;;;;;;0.82;0.57;;;20.40;42.00;;;23.98;28.23;98535.75;4861373;29;20063;-76
2021/12/01 07:13:56;;;;;;;1.02;0.73;;;20.30;42.00;;;23.96;27.99;98524.41;4847026;29;20114;-76
2021/12/01 07:16:30;;;;;;;1.20;0.60;;;20.30;42.00;;;23.96;28.13;98516.41;4877938;29;20061;-76
2021/12/01 07:18:59;;;;;;;0.73;0.60;;;20.40;42.00;;;23.98;28.08;98514.41;4862567;29;20113;-76
2021/12/01 07:21:25;;;;;;;0.80;0.65;;;20.40;42.00;;;23.99;28.14;98504.53;4862267;29;20060;-76
2021/12/01 07:23:53;;;;;;;0.75;0.50;;;20.40;42.00;;;23.95;28.10;98506.72;4861749;29;20554;-76
2021/12/01 07:26:19;;;;;;;0.88;0.70;;;20.40;42.00;;;23.95;28.04;98504.06;4862319;29;20140;-76
2021/12/01 07:28:45;;;;;;;1.23;0.70;;;20.40;42.00;;;23.96;28.24;98495.06;4862477;29;20137;-76
2021/12/01 07:31:10;;;;;;;1.50;0.80;;;20.40;42.00;;;23.96;27.96;98491.56;4862362;29;20081;-76
2021/12/01 07:33:36;;;;;;;1.48;0.82;;;20.40;41.90;;;23.99;28.03;98488.53;4862327;29;20053;-76
2021/12/01 07:36:04;;;;;;;0.70;0.50;;;20.40;41.90;;;23.97;28.02;98482.53;4847140;29;20530;-76
2021/12/01 07:38:30;;;;;;;1.00;0.73;;;20.40;42.00;;;23.95;28.08;98477.38;4862303;29;20053;-76
2021/12/01 07:40:56;;;;;;;1.00;0.60;;;20.40;42.00;;;23.96;28.18;98470.22;4862302;29;20089;-76
2021/12/01 07:43:22;;;;;;;0.88;0.70;;;20.40;42.00;;;23.98;28.09;98473.53;4862287;29;20498;-76
2021/12/01 07:45:48;;;;;;;0.73;0.50;;;20.40;42.00;;;23.97;28.05;98464.72;4862283;29;20060;-76
2021/12/01 07:48:14;;;;;;;2.25;0.60;;;20.40;42.00;;;23.96;28.27;98456.88;4862088;29;20493;-76
2021/12/01 07:50:41;;;;;;;2.38;0.75;;;20.40;42.00;;;24.00;28.25;98463.50;4862001;29;20049;-76
2021/12/01 07:53:10;;;;;;;0.60;0.60;;;20.40;42.00;;;23.99;28.31;98457.34;4862000;29;20057;-76
2021/12/01 07:55:36;;;;;;;0.60;0.60;;;20.40;41.90;;;24.01;28.05;98454.50;4861940;29;20148;-76
2021/12/01 07:58:01;;;;;;;0.90;0.60;;;20.40;41.90;;;24.00;28.13;98452.84;4861983;29;20136;-76
2021/12/01 08:00:27;;;;;;;1.67;0.70;;;20.40;42.00;;;23.99;28.18;98456.50;4862016;29;20087;-76
2021/12/01 08:02:53;;;;;;;0.82;0.57;;;20.40;41.90;;;23.97;28.02;98442.50;4878527;29;20053;-76
2021/12/01 08:05:19;;;;;;;0.90;0.80;;;20.40;41.90;;;23.99;28.28;98441.34;4861947;29;20049;-76
2021/12/01 08:07:45;;;;;;;0.80;0.70;;;20.40;42.00;;;23.98;28.15;98428.16;4846503;29;20080;-76
2021/12/01 08:10:11;;;;;;;0.95;0.82;;;20.40;41.90;;;24.01;27.96;98422.47;4844621;29;20083;-76
2021/12/01 08:12:38;;;;;;;0.73;0.63;;;20.40;41.90;;;24.00;28.22;98423.47;4846378;29;20053;-76
2021/12/01 08:15:06;;;;;;;0.40;0.40;;;20.40;41.90;;;24.00;28.25;98413.63;4861887;29;20060;-76
2021/12/01 08:17:33;;;;;;;0.82;0.73;;;20.40;41.90;;;24.02;28.07;98421.47;4878500;29;20127;-76
2021/12/01 08:19:58;;;;;;;1.23;0.70;;;20.40;41.90;;;24.00;28.27;98418.97;4861638;29;20460;-76
2021/12/01 08:22:28;;;;;;;0.50;0.50;;;20.40;41.90;;;24.02;27.96;98414.31;4845770;29;20049;-76
2021/12/01 08:24:57;;;;;;;0.43;0.43;;;20.40;41.90;;;24.00;28.05;98408.28;4861546;29;20121;-77
2021/12/01 08:27:25;;;;;;;0.80;0.68;;;20.40;41.90;;;24.00;28.05;98397.59;4861865;29;20136;-76
2021/12/01 08:29:50;;;;;;;1.42;0.75;;;20.40;41.90;;;24.02;28.19;98400.09;4861764;29;20057;-76
2021/12/01 08:32:16;;;;;;;0.80;0.60;;;20.40;41.90;;;24.02;28.16;98392.94;4846661;29;20056;-76
2021/12/01 08:34:47;;;;;;;0.70;0.68;;;20.40;41.90;;;24.02;28.01;98406.28;4878497;29;20057;-76
2021/12/01 08:37:14;;;;;;;0.73;0.60;;;20.40;41.90;;;24.03;28.23;98381.25;4864601;29;20396;-76
2021/12/01 08:39:40;;;;;;;0.70;0.60;;;20.40;41.90;;;24.00;28.13;98375.44;4849210;29;20386;-76
2021/12/01 08:42:06;;;;;;;0.90;0.73;;;20.40;41.90;;;24.04;28.26;98376.75;4864904;29;20082;-76
2021/12/01 08:44:31;;;;;;;1.10;0.60;;;20.40;41.90;;;24.03;28.20;98383.09;4864775;29;20140;-76
2021/12/01 08:47:00;;;;;;;0.88;0.63;;;20.40;41.90;;;23.96;28.02;98353.59;4881226;29;20474;-76
2021/12/01 08:49:26;;;;;;;0.70;0.70;;;20.40;41.90;;;24.03;27.90;98367.06;4849737;29;20098;-76
2021/12/01 08:51:52;;;;;;;1.10;0.77;;;20.40;41.90;;;24.00;28.04;98362.91;4849012;29;20045;-76
2021/12/01 08:54:18;;;;;;;1.10;0.73;;;20.40;41.90;;;24.03;28.31;98359.06;4864517;29;20081;-76
2021/12/01 08:56:44;;;;;;;0.90;0.70;;;20.40;41.90;;;24.02;28.01;98360.06;4864574;29;20079;-76
2021/12/01 08:59:10;;;;;;;0.82;0.60;;;20.40;41.90;;;24.02;28.36;98341.38;4864478;29;20106;-76
2021/12/01 09:01:36;;;;;;;0.40;0.40;;;20.40;41.90;;;24.03;28.08;98337.72;4864573;29;20061;-76
2021/12/01 09:04:02;;;;;;;0.70;0.50;;;20.40;41.90;;;24.04;27.96;98340.22;4879403;29;20049;-76
2021/12/01 09:06:30;;;;;;;0.65;0.65;;;20.40;41.90;;;24.04;28.09;98326.03;4864354;29;20049;-76
2021/12/01 09:08:56;;;;;;;0.90;0.63;;;20.40;41.90;;;24.02;28.05;98334.22;4864433;29;20084;-76
2021/12/01 09:11:22;;;;;;;0.50;0.50;;;20.40;41.80;;;24.05;28.12;98327.69;4864152;29;20470;-76
2021/12/01 09:13:48;;;;;;;0.70;0.60;;;20.40;41.80;;;24.02;28.10;98323.53;4864171;29;20053;-76
2021/12/01 09:16:14;;;;;;;0.50;0.50;;;20.40;41.80;;;24.05;28.19;98317.00;4864627;29;20112;-77
2021/12/01 09:18:40;;;;;;;0.70;0.60;;;20.40;41.90;;;24.04;28.00;98310.84;4881082;29;20049;-76
2021/12/01 09:21:06;;;;;;;0.93;0.60;;;20.40;41.90;;;24.07;28.16;98314.16;4863922;29;20135;-76
2021/12/01 09:23:33;;;;;;;0.90;0.70;;;20.40;41.90;;;24.04;28.17;98313.53;4879398;29;20481;-76
2021/12/01 09:25:59;;;;;;;0.70;0.70;;;20.40;41.90;;;24.04;28.00;98297.50;4863969;29;20060;-76
2021/12/01 09:28:30;;;;;;;0.60;0.60;;;20.40;41.90;;;24.05;28.07;98301.81;4863684;29;20061;-76
2021/12/01 09:31:00;;;;;;;0.73;0.55;;;20.40;41.90;;;24.05;28.13;98285.81;4847829;29;20088;-76
2021/12/01 09:33:36;;;;;;;1.00;0.70;;;20.40;41.90;;;24.02;28.00;98290.66;4849424;29;20093;-76
2021/12/01 09:36:03;;;;;;;1.42;0.70;;;20.40;41.80;;;24.08;28.12;98281.97;4848908;29;20056;-76
2021/12/01 09:38:30;;;;;;;0.50;0.50;;;20.50;41.90;;;24.07;28.04;98290.13;4846445;29;20406;-76
2021/12/01 09:41:00;;;;;;;1.08;0.65;;;20.50;41.90;;;24.08;28.05;98283.81;4848402;29;20573;-76
2021/12/01 09:43:31;;;;;;;0.55;0.50;;;20.40;41.90;;;24.07;28.07;98284.81;4863955;29;20486;-76
2021/12/01 09:46:03;;;;;;;0.77;0.70;;;20.40;41.80;;;24.07;28.14;98277.63;4864583;29;20478;-76
2021/12/01 09:48:30;;;;;;;0.60;0.60;;;20.50;41.90;;;24.07;27.90;98269.59;4848051;29;20057;-76
2021/12/01 09:50:56;;;;;;;0.82;0.70;;;20.50;41.90;;;24.09;27.91;98269.44;4863715;29;20081;-76
2021/12/01 09:53:22;;;;;;;0.60;0.60;;;20.40;41.80;;;24.09;28.06;98256.09;4848154;29;20045;-76
2021/12/01 09:55:48;;;;;;;0.60;0.60;;;20.40;41.80;;;24.05;28.18;98253.75;4863858;29;20557;-76
2021/12/01 09:58:23;;;;;;;1.02;0.80;;;20.50;42.40;;;24.07;28.11;98236.75;4863444;29;20075;-76
2021/12/01 10:00:55;;;;;;;0.88;0.63;;;20.50;41.90;;;24.08;28.21;98231.25;4863990;29;20244;-76
2021/12/01 10:03:22;;;;;;;0.60;0.60;;;20.50;41.90;;;24.09;27.94;98235.59;4863579;29;20140;-76
2021/12/01 10:06:13;;;;;;;1.30;0.60;;;20.50;41.90;;;24.05;28.05;98236.94;4863523;29;20509;-76
2021/12/01 10:08:50;;;;;;;0.68;0.60;;;20.50;41.90;;;24.08;28.10;98214.41;4864519;29;20450;-76
2021/12/01 10:11:27;;;;;;;1.10;0.60;;;20.50;41.90;;;24.09;27.98;98218.72;4848031;29;20498;-76
2021/12/01 10:14:14;;;;;;;0.88;0.60;;;20.50;41.90;;;24.06;27.97;98211.91;4848196;29;20415;-76
2021/12/01 10:16:45;;;;;;;1.48;0.47;;;20.50;41.90;;;24.12;28.26;98203.16;4848095;29;20052;-76
2021/12/01 10:19:14;;;;;;;0.70;0.70;;;20.50;41.90;;;24.11;28.06;98190.03;4863622;29;20057;-76
2021/12/01 10:21:48;;;;;;;0.63;0.57;;;20.50;41.90;;;24.09;27.98;98163.50;4847938;29;20049;-77
2021/12/01 10:24:27;;;;;;;0.75;0.60;;;20.50;41.80;;;24.07;28.06;98140.66;4880003;29;20069;-76
2021/12/01 10:27:09;;;;;;;0.63;0.50;;;20.50;41.70;;;24.12;28.16;98152.44;4863255;29;20053;-76
2021/12/01 10:29:45;;;;;;;0.73;0.60;;;20.50;41.80;;;24.13;28.10;98140.75;4863338;29;20057;-76